Time;durP1;ratioP1;P1;durP2;ratioP2;P2;SDS_P1;SDS_P2;PMS_P1;PMS_P2;Temp;Humidity;BMP_temperature;BMP_pressure;BME280_temperature;BME280_humidity;BME280_pressure;Samples;Min_cycle;Max_cycle;Signal;HPM_P1;HPM_P2
2022/10/09 00:00:44;;;;;;;4.38;1.80;;;13.50;65.40;;;;;;5077400;28;20044;-78
2022/10/09 00:03:11;;;;;;;4.70;1.92;;;13.40;65.60;;;;;;5097725;28;20023;-78
2022/10/09 00:05:36;;;;;;;3.40;1.67;;;13.40;65.80;;;;;;5093304;28;20032;-78
2022/10/09 00:08:02;;;;;;;6.38;2.30;;;13.40;65.70;;;;;;5077267;28;20100;-78
2022/10/09 00:10:28;;;;;;;4.03;1.58;;;13.40;65.90;;;;;;5076784;28;20021;-78
2022/10/09 00:12:54;;;;;;;5.78;2.05;;;13.40;65.80;;;;;;5077234;28;20510;-78
2022/10/09 00:15:19;;;;;;;3.28;1.83;;;13.40;65.70;;;;;;5077245;28;20051;-78
2022/10/09 00:17:45;;;;;;;5.28;1.60;;;13.40;66.00;;;;;;5075855;28;20021;-78
2022/10/09 00:20:11;;;;;;;5.10;1.30;;;13.30;66.10;;;;;;5076678;28;20028;-78
2022/10/09 00:22:37;;;;;;;3.50;1.55;;;13.30;66.00;;;;;;5092103;28;20032;-78
2022/10/09 00:25:03;;;;;;;5.07;1.42;;;13.40;65.80;;;;;;5099673;28;20081;-79
2022/10/09 00:27:29;;;;;;;3.90;1.20;;;13.30;65.70;;;;;;5076449;28;20028;-78
2022/10/09 00:29:55;;;;;;;6.00;1.65;;;13.30;65.80;;;;;;5076689;28;20082;-78
2022/10/09 00:32:20;;;;;;;5.68;1.98;;;13.30;65.70;;;;;;5059154;28;20032;-78
2022/10/09 00:34:46;;;;;;;3.42;1.58;;;13.20;66.00;;;;;;5076511;28;20031;-78
2022/10/09 00:37:12;;;;;;;4.25;1.67;;;13.20;65.90;;;;;;5070981;28;20116;-77
2022/10/09 00:39:37;;;;;;;3.45;1.40;;;13.20;65.80;;;;;;5056810;28;20029;-78
2022/10/09 00:42:03;;;;;;;3.85;1.60;;;13.20;66.00;;;;;;5055707;28;20029;-78
2022/10/09 00:44:48;;;;;;;6.25;1.70;;;13.20;66.00;;;;;;5056216;28;20167;-78
2022/10/09 00:47:37;;;;;;;3.72;1.30;;;13.20;66.00;;;;;;5056562;28;20040;-78
2022/10/09 00:50:05;;;;;;;3.17;1.58;;;13.20;66.10;;;;;;5056664;28;20385;-78
2022/10/09 00:52:32;;;;;;;2.65;1.70;;;13.20;65.80;;;;;;5055506;28;20029;-78
2022/10/09 00:54:59;;;;;;;4.32;1.70;;;13.10;65.80;;;;;;5060011;28;20027;-80
2022/10/09 00:57:25;;;;;;;8.30;1.92;;;13.10;65.80;;;;;;5055003;28;20115;-78
2022/10/09 00:59:51;;;;;;;3.08;1.48;;;13.10;65.90;;;;;;5056468;28;20028;-77
2022/10/09 01:02:16;;;;;;;5.03;1.70;;;13.10;65.60;;;;;;5055779;28;20067;-78
2022/10/09 01:04:42;;;;;;;3.80;1.50;;;13.00;65.90;;;;;;5054798;28;20780;-79
2022/10/09 01:07:10;;;;;;;5.95;1.23;;;13.00;66.10;;;;;;5056168;28;20484;-78
2022/10/09 01:09:36;;;;;;;6.38;1.52;;;13.00;65.90;;;;;;5056007;28;20029;-78
2022/10/09 01:12:32;;;;;;;3.63;1.83;;;13.00;66.00;;;;;;5056236;28;20021;-78
2022/10/09 01:15:25;;;;;;;3.42;1.83;;;13.00;65.80;;;;;;5029782;28;20060;-78
2022/10/09 01:18:03;;;;;;;3.20;1.48;;;13.00;65.80;;;;;;5071460;28;20472;-78
2022/10/09 01:20:49;;;;;;;3.63;1.45;;;13.00;65.90;;;;;;5069973;28;20432;-78
2022/10/09 01:23:52;;;;;;;4.97;1.50;;;12.90;66.10;;;;;;5087314;28;20032;-78
2022/10/09 01:26:17;;;;;;;1.92;1.13;;;12.80;66.00;;;;;;5071172;28;20064;-78
2022/10/09 01:28:50;;;;;;;5.97;1.52;;;12.90;66.40;;;;;;5054391;28;20029;-78
2022/10/09 01:31:17;;;;;;;2.83;1.48;;;12.80;66.10;;;;;;5055812;28;20028;-78
2022/10/09 01:33:54;;;;;;;5.35;1.42;;;12.80;66.30;;;;;;5056246;28;20029;-78
2022/10/09 01:36:21;;;;;;;4.60;1.15;;;12.80;66.10;;;;;;5060601;28;20055;-78
2022/10/09 01:38:48;;;;;;;6.20;1.77;;;12.80;66.30;;;;;;5075854;28;20056;-78
2022/10/09 01:41:14;;;;;;;6.72;1.35;;;12.80;66.20;;;;;;5057099;28;20044;-78
2022/10/09 01:43:40;;;;;;;3.47;1.40;;;12.70;66.10;;;;;;5073876;28;20044;-78
2022/10/09 01:46:28;;;;;;;2.58;1.50;;;12.70;66.20;;;;;;5074743;28;20082;-81
2022/10/09 01:49:33;;;;;;;3.60;1.20;;;12.80;66.40;;;;;;5057389;28;20024;-80
2022/10/09 01:52:17;;;;;;;3.88;1.50;;;12.70;66.40;;;;;;5070811;28;20507;-78
2022/10/09 01:55:05;;;;;;;2.38;1.10;;;12.70;66.10;;;;;;5075520;28;20047;-78
2022/10/09 01:57:53;;;;;;;2.47;1.23;;;12.70;66.30;;;;;;5057598;28;20032;-78
2022/10/09 02:00:19;;;;;;;5.90;1.27;;;12.60;66.40;;;;;;5075211;28;20032;-78
2022/10/09 02:02:47;;;;;;;2.80;1.30;;;12.60;66.70;;;;;;5057415;28;20035;-78
2022/10/09 02:05:20;;;;;;;4.85;1.90;;;12.60;66.50;;;;;;5057204;28;20033;-78
2022/10/09 02:07:48;;;;;;;2.83;1.40;;;12.50;66.60;;;;;;5057464;28;20099;-78
2022/10/09 02:10:17;;;;;;;2.75;1.23;;;12.50;66.50;;;;;;5075345;28;20038;-78
2022/10/09 02:12:46;;;;;;;2.50;1.45;;;12.60;66.50;;;;;;5075556;28;20012;-78
2022/10/09 02:15:13;;;;;;;3.22;1.23;;;12.50;66.70;;;;;;5075143;28;20364;-78
2022/10/09 02:17:44;;;;;;;2.17;1.23;;;12.50;66.60;;;;;;5075426;28;20396;-80
2022/10/09 02:20:29;;;;;;;3.03;1.52;;;12.50;66.60;;;;;;5075135;28;20116;-78
2022/10/09 02:22:57;;;;;;;2.15;1.50;;;12.50;66.60;;;;;;5093760;28;20031;-78
2022/10/09 02:25:23;;;;;;;3.40;1.30;;;12.40;66.60;;;;;;5075274;28;20056;-78
2022/10/09 02:27:48;;;;;;;3.40;1.45;;;12.40;66.50;;;;;;5075285;28;20068;-78
2022/10/09 02:30:15;;;;;;;7.82;1.73;;;12.40;66.80;;;;;;5075157;28;20028;-78
2022/10/09 02:32:41;;;;;;;4.22;1.30;;;12.40;66.70;;;;;;5075013;28;20032;-78
2022/10/09 02:35:07;;;;;;;3.63;1.17;;;12.30;66.70;;;;;;5056942;28;20027;-78
2022/10/09 02:37:33;;;;;;;3.83;1.33;;;12.30;66.70;;;;;;5074206;28;20052;-78
2022/10/09 02:39:58;;;;;;;3.75;1.50;;;12.30;66.80;;;;;;5056827;28;20040;-78
2022/10/09 02:42:24;;;;;;;1.65;1.10;;;12.30;66.80;;;;;;5075092;28;20381;-78
2022/10/09 02:44:51;;;;;;;5.32;1.40;;;12.30;66.80;;;;;;5075084;28;20028;-78
2022/10/09 02:47:17;;;;;;;4.72;1.95;;;12.30;66.70;;;;;;5069511;28;20043;-78
2022/10/09 02:49:43;;;;;;;5.55;1.65;;;12.30;66.90;;;;;;5056881;28;20021;-78
2022/10/09 02:52:08;;;;;;;6.72;1.60;;;12.20;67.10;;;;;;5056986;28;20064;-78
2022/10/09 02:54:34;;;;;;;3.20;1.38;;;12.20;67.30;;;;;;5074848;28;20028;-78
2022/10/09 02:57:00;;;;;;;2.22;1.48;;;12.20;67.20;;;;;;5065008;28;20033;-79
2022/10/09 02:59:25;;;;;;;3.15;1.40;;;12.20;67.40;;;;;;5078491;28;20508;-77
2022/10/09 03:01:51;;;;;;;4.15;1.40;;;12.10;67.60;;;;;;5078445;28;20029;-78
2022/10/09 03:04:17;;;;;;;3.88;1.42;;;12.00;67.30;;;;;;5077317;28;20025;-78
2022/10/09 03:06:43;;;;;;;2.92;1.23;;;12.10;67.50;;;;;;5060510;28;20429;-78
2022/10/09 03:09:09;;;;;;;3.38;1.27;;;12.10;67.50;;;;;;5077177;28;20024;-81
2022/10/09 03:11:34;;;;;;;4.50;1.17;;;12.10;67.40;;;;;;5078229;28;20093;-78
2022/10/09 03:14:00;;;;;;;1.23;1.08;;;12.10;67.50;;;;;;5078464;28;20538;-79
2022/10/09 03:16:28;;;;;;;2.55;1.20;;;12.10;67.50;;;;;;5077761;28;20435;-77
2022/10/09 03:18:54;;;;;;;6.53;1.20;;;12.10;67.50;;;;;;5078193;28;20029;-78
2022/10/09 03:21:23;;;;;;;3.78;1.48;;;12.00;67.60;;;;;;5078216;28;20044;-80
2022/10/09 03:23:49;;;;;;;4.05;1.45;;;12.00;67.30;;;;;;5110522;28;20024;-80
2022/10/09 03:26:18;;;;;;;2.90;1.38;;;12.00;67.40;;;;;;5078306;28;20046;-78
2022/10/09 03:28:46;;;;;;;3.33;1.77;;;12.10;67.40;;;;;;5078092;28;20116;-78
2022/10/09 03:31:13;;;;;;;2.00;1.13;;;12.00;67.50;;;;;;5059980;28;20048;-78
2022/10/09 03:33:41;;;;;;;5.35;1.90;;;12.00;67.60;;;;;;5077895;28;20438;-78
2022/10/09 03:36:08;;;;;;;4.00;1.40;;;12.00;67.70;;;;;;5077457;28;20049;-78
2022/10/09 03:38:34;;;;;;;3.92;1.63;;;12.00;67.70;;;;;;5078050;28;20048;-80
2022/10/09 03:41:01;;;;;;;3.33;1.70;;;12.00;67.80;;;;;;5059751;28;20036;-78
2022/10/09 03:43:30;;;;;;;3.05;1.38;;;11.90;67.80;;;;;;5077919;28;20024;-79
2022/10/09 03:45:56;;;;;;;5.30;1.42;;;11.80;68.20;;;;;;5077582;28;20032;-78
2022/10/09 03:48:22;;;;;;;2.00;1.42;;;11.80;68.40;;;;;;5059666;28;20033;-78
2022/10/09 03:50:48;;;;;;;4.32;1.20;;;11.80;68.20;;;;;;5061188;28;20040;-78
2022/10/09 03:53:14;;;;;;;2.53;1.25;;;11.80;68.20;;;;;;5059075;28;20446;-78
2022/10/09 03:55:41;;;;;;;4.30;1.60;;;11.90;68.10;;;;;;5077426;28;20492;-79
2022/10/09 03:58:07;;;;;;;5.22;1.83;;;11.80;68.20;;;;;;5077772;28;20029;-78
2022/10/09 04:00:33;;;;;;;7.90;1.85;;;11.80;68.10;;;;;;5077729;28;20028;-78
2022/10/09 04:02:59;;;;;;;5.97;1.50;;;11.90;68.10;;;;;;5077488;28;20025;-78
2022/10/09 04:05:25;;;;;;;3.97;1.45;;;11.80;68.20;;;;;;5059417;28;20035;-78
2022/10/09 04:07:50;;;;;;;3.03;1.48;;;11.80;68.10;;;;;;5076900;28;20064;-77
2022/10/09 04:10:16;;;;;;;3.53;1.40;;;11.80;68.20;;;;;;5075100;28;20040;-78
2022/10/09 04:12:42;;;;;;;3.70;1.40;;;11.80;68.20;;;;;;5077406;28;20021;-78
2022/10/09 04:15:09;;;;;;;4.15;1.50;;;11.80;68.20;;;;;;5068613;28;20411;-79
2022/10/09 04:17:34;;;;;;;3.53;1.70;;;11.80;68.00;;;;;;5059170;28;20021;-78
2022/10/09 04:20:00;;;;;;;3.45;1.55;;;11.80;68.10;;;;;;5077311;28;20036;-78
2022/10/09 04:22:26;;;;;;;4.63;1.42;;;11.80;68.10;;;;;;5089056;28;20047;-78
2022/10/09 04:24:52;;;;;;;3.60;1.38;;;11.70;68.10;;;;;;5077440;28;20075;-78
2022/10/09 04:27:17;;;;;;;3.42;1.48;;;11.70;68.30;;;;;;5058714;28;20068;-78
2022/10/09 04:29:43;;;;;;;5.50;1.70;;;11.70;68.50;;;;;;5058598;28;20032;-78
2022/10/09 04:32:09;;;;;;;9.55;1.80;;;11.70;68.60;;;;;;5076687;28;20017;-79
2022/10/09 04:34:34;;;;;;;3.00;1.65;;;11.70;68.50;;;;;;5076945;28;20029;-78
2022/10/09 04:37:00;;;;;;;3.03;1.92;;;11.60;68.50;;;;;;5076883;28;20036;-80
2022/10/09 04:39:25;;;;;;;2.47;1.35;;;11.60;68.60;;;;;;5076902;28;20063;-78
2022/10/09 04:41:51;;;;;;;4.70;1.50;;;11.70;68.70;;;;;;5077044;28;20020;-78
2022/10/09 04:44:17;;;;;;;5.50;1.75;;;11.70;68.40;;;;;;5075527;28;20075;-79
2022/10/09 04:46:42;;;;;;;5.82;1.77;;;11.70;68.40;;;;;;5075973;28;20020;-78
2022/10/09 04:49:12;;;;;;;3.83;1.58;;;11.70;68.50;;;;;;5058449;28;20032;-79
2022/10/09 04:51:38;;;;;;;5.10;1.70;;;11.60;68.50;;;;;;5058730;28;20029;-80
2022/10/09 04:54:04;;;;;;;4.25;1.52;;;11.60;68.60;;;;;;5076562;28;20039;-78
2022/10/09 04:56:30;;;;;;;3.40;1.58;;;11.60;68.60;;;;;;5058475;28;20025;-78
2022/10/09 04:58:56;;;;;;;6.63;1.60;;;11.50;68.60;;;;;;5076188;28;20040;-80
2022/10/09 05:01:24;;;;;;;5.80;1.45;;;11.50;68.90;;;;;;5081835;28;20023;-79
2022/10/09 05:03:50;;;;;;;7.43;1.90;;;11.50;68.60;;;;;;5094217;28;20028;-79
2022/10/09 05:06:17;;;;;;;3.20;1.35;;;11.40;68.90;;;;;;5080227;28;20478;-79
2022/10/09 05:08:43;;;;;;;2.67;1.50;;;11.40;69.00;;;;;;5075825;28;20036;-79
2022/10/09 05:11:17;;;;;;;4.88;1.70;;;11.30;69.00;;;;;;5065876;28;20093;-79
2022/10/09 05:13:46;;;;;;;5.32;1.75;;;11.30;69.30;;;;;;5096859;28;20038;-79
2022/10/09 05:16:17;;;;;;;4.93;1.60;;;11.40;69.20;;;;;;5077645;28;20059;-79
2022/10/09 05:18:44;;;;;;;5.18;1.50;;;11.30;69.30;;;;;;5096781;28;20031;-79
2022/10/09 05:21:10;;;;;;;3.80;1.42;;;11.30;69.30;;;;;;5073627;28;20150;-79
2022/10/09 05:23:36;;;;;;;4.60;1.52;;;11.30;69.40;;;;;;5107686;28;20036;-79
2022/10/09 05:26:04;;;;;;;4.50;2.03;;;11.30;69.20;;;;;;5077710;28;20124;-79
2022/10/09 05:28:31;;;;;;;1.92;1.35;;;11.30;69.40;;;;;;5082955;28;20117;-79
2022/10/09 05:30:57;;;;;;;2.95;1.50;;;11.30;69.50;;;;;;5075929;28;20027;-79
2022/10/09 05:33:22;;;;;;;4.40;1.98;;;11.20;69.40;;;;;;5057837;28;20032;-78
2022/10/09 05:35:57;;;;;;;4.28;1.50;;;11.20;69.40;;;;;;5075959;28;20025;-79
2022/10/09 05:38:26;;;;;;;2.67;1.63;;;11.20;69.40;;;;;;5095927;28;20035;-79
2022/10/09 05:40:56;;;;;;;3.53;1.60;;;11.20;69.30;;;;;;5078389;28;20077;-80
2022/10/09 05:43:23;;;;;;;3.90;1.60;;;11.20;69.70;;;;;;5078155;28;20032;-79
2022/10/09 05:45:49;;;;;;;4.45;1.77;;;11.20;69.50;;;;;;5066753;28;20032;-79
2022/10/09 05:48:16;;;;;;;9.63;2.17;;;11.20;69.70;;;;;;5058062;28;20048;-79
2022/10/09 05:50:42;;;;;;;4.25;1.70;;;11.20;69.60;;;;;;5075567;28;20345;-79
2022/10/09 05:53:08;;;;;;;4.70;1.92;;;11.20;69.60;;;;;;5058005;28;20476;-79
2022/10/09 05:55:36;;;;;;;3.63;1.95;;;11.20;69.70;;;;;;5076152;28;20862;-79
2022/10/09 05:58:02;;;;;;;3.92;1.63;;;11.20;69.50;;;;;;5075434;28;20199;-79
2022/10/09 06:00:28;;;;;;;4.80;1.77;;;11.20;69.40;;;;;;5075552;28;20121;-79
2022/10/09 06:02:53;;;;;;;2.78;1.27;;;11.20;69.50;;;;;;5075564;28;20036;-78
2022/10/09 06:05:20;;;;;;;4.25;2.33;;;11.10;69.50;;;;;;5075330;28;20553;-79
2022/10/09 06:07:46;;;;;;;4.15;1.55;;;11.00;69.50;;;;;;5083102;28;20476;-78
2022/10/09 06:10:12;;;;;;;8.13;2.40;;;11.00;69.60;;;;;;5089473;28;20020;-86
2022/10/09 06:12:38;;;;;;;5.57;1.67;;;11.00;69.90;;;;;;5077978;28;20024;-77
2022/10/09 06:15:04;;;;;;;2.58;1.85;;;11.00;69.80;;;;;;5095479;28;20532;-83
2022/10/09 06:17:32;;;;;;;6.20;1.88;;;11.00;69.90;;;;;;5072671;28;20058;-80
2022/10/09 06:19:57;;;;;;;2.47;1.50;;;11.10;69.80;;;;;;5083827;28;20038;-79
2022/10/09 06:22:23;;;;;;;5.80;1.52;;;11.00;69.70;;;;;;5101175;28;20098;-80
2022/10/09 06:24:49;;;;;;;7.18;1.75;;;11.10;69.60;;;;;;5109420;28;20120;-81
2022/10/09 06:27:14;;;;;;;5.10;1.70;;;11.10;69.70;;;;;;5057186;28;20081;-82
2022/10/09 06:29:40;;;;;;;4.22;1.75;;;11.00;69.80;;;;;;5075556;28;20024;-84
2022/10/09 06:32:06;;;;;;;5.97;2.05;;;11.00;69.80;;;;;;5075671;28;20028;-83
2022/10/09 06:34:31;;;;;;;4.03;2.00;;;11.10;69.90;;;;;;5079184;28;20055;-81
2022/10/09 06:36:57;;;;;;;2.25;1.52;;;11.00;69.70;;;;;;5079144;28;20036;-78
2022/10/09 06:39:25;;;;;;;3.95;1.55;;;11.10;69.60;;;;;;5084594;28;20444;-82
2022/10/09 06:41:51;;;;;;;7.25;2.15;;;11.00;69.60;;;;;;5075330;28;20495;-85
2022/10/09 06:44:17;;;;;;;4.63;1.85;;;11.00;70.00;;;;;;5099478;28;20098;-80
2022/10/09 06:46:48;;;;;;;3.78;1.63;;;11.00;70.00;;;;;;5096842;28;20487;-87
2022/10/09 06:49:14;;;;;;;7.35;1.85;;;11.10;69.80;;;;;;5081157;28;20024;-86
2022/10/09 06:51:42;;;;;;;6.25;2.30;;;11.10;69.80;;;;;;5092128;28;20024;-86
2022/10/09 06:54:13;;;;;;;3.60;1.85;;;11.00;70.20;;;;;;5080163;28;20028;-87
2022/10/09 06:56:40;;;;;;;2.13;1.73;;;11.00;69.90;;;;;;5096028;28;20031;-89
2022/10/09 06:59:09;;;;;;;5.47;1.38;;;11.10;70.00;;;;;;5080835;28;20028;-85
2022/10/09 07:01:36;;;;;;;3.45;1.80;;;11.10;69.80;;;;;;5097956;28;20058;-87
2022/10/09 07:04:09;;;;;;;4.55;2.00;;;11.10;70.00;;;;;;5089587;28;20115;-87
2022/10/09 07:06:42;;;;;;;2.75;1.60;;;11.00;70.30;;;;;;5090945;28;20035;-90
2022/10/09 07:09:12;;;;;;;3.20;1.80;;;11.10;70.40;;;;;;5095953;28;20028;-90
2022/10/09 07:11:45;;;;;;;3.55;2.00;;;11.00;70.20;;;;;;5080224;28;20046;-86
2022/10/09 07:14:14;;;;;;;3.83;1.67;;;11.10;70.30;;;;;;5101763;28;20433;-83
2022/10/09 07:16:43;;;;;;;6.05;2.00;;;11.20;70.40;;;;;;5092476;28;20025;-84
2022/10/09 07:19:10;;;;;;;6.15;2.22;;;11.30;70.00;;;;;;5075251;28;20062;-89
2022/10/09 07:21:37;;;;;;;4.32;1.80;;;11.20;70.10;;;;;;5096024;28;20055;-88
2022/10/09 07:24:04;;;;;;;1.92;1.73;;;11.20;70.30;;;;;;5080240;28;20032;-86
2022/10/09 07:26:31;;;;;;;2.85;1.73;;;11.40;70.30;;;;;;5078991;28;20024;-86
2022/10/09 07:28:58;;;;;;;6.90;2.67;;;11.40;70.20;;;;;;5096847;28;20028;-88
2022/10/09 07:31:24;;;;;;;1.50;1.33;;;11.50;69.80;;;;;;5097655;28;20015;-89
2022/10/09 07:33:51;;;;;;;3.17;1.50;;;11.60;70.40;;;;;;5079323;28;20427;-89
2022/10/09 07:36:18;;;;;;;3.55;1.80;;;11.50;69.70;;;;;;5074519;28;20037;-88
2022/10/09 07:38:47;;;;;;;7.95;2.22;;;11.60;70.10;;;;;;5098133;28;20047;-88
2022/10/09 07:41:13;;;;;;;2.63;1.85;;;11.70;69.90;;;;;;5114025;28;20030;-89
2022/10/09 07:43:40;;;;;;;4.68;2.03;;;11.70;69.90;;;;;;5097355;28;20028;-88
2022/10/09 07:46:09;;;;;;;4.72;1.73;;;11.70;69.40;;;;;;5090805;28;20035;-87
2022/10/09 07:48:35;;;;;;;4.47;2.00;;;11.70;69.40;;;;;;5091533;28;20078;-88
2022/10/09 07:51:12;;;;;;;2.60;1.65;;;11.80;69.50;;;;;;5083177;28;20032;-90
2022/10/09 07:53:38;;;;;;;3.63;1.30;;;11.80;69.60;;;;;;5114059;28;20436;-90
2022/10/09 07:56:05;;;;;;;6.32;2.33;;;11.80;69.70;;;;;;5100470;28;20027;-89
2022/10/09 07:58:31;;;;;;;1.90;1.25;;;11.90;69.40;;;;;;5094377;28;20079;-85
2022/10/09 08:01:03;;;;;;;7.07;1.63;;;11.90;69.30;;;;;;5098352;28;20085;-81
2022/10/09 08:03:28;;;;;;;3.00;2.00;;;11.90;69.10;;;;;;5114895;28;20031;-78
2022/10/09 08:05:55;;;;;;;3.53;1.75;;;11.90;69.00;;;;;;5117115;27;20513;-79
2022/10/09 08:08:20;;;;;;;5.47;1.85;;;12.00;68.80;;;;;;5107021;28;20036;-79
2022/10/09 08:10:46;;;;;;;3.10;1.70;;;12.10;69.30;;;;;;5110174;28;20030;-79
2022/10/09 08:13:12;;;;;;;4.82;2.00;;;12.20;68.80;;;;;;5089428;28;20031;-79
2022/10/09 08:15:42;;;;;;;2.78;1.65;;;12.20;68.80;;;;;;5095456;28;20028;-80
2022/10/09 08:18:09;;;;;;;8.25;2.17;;;12.30;68.90;;;;;;5105099;28;20039;-79
2022/10/09 08:20:35;;;;;;;2.05;1.58;;;12.30;68.70;;;;;;5083623;28;20096;-80
2022/10/09 08:23:01;;;;;;;4.70;1.65;;;12.40;68.60;;;;;;5119326;27;20032;-79
2022/10/09 08:25:27;;;;;;;3.75;1.90;;;12.40;68.40;;;;;;5111437;28;20077;-83
2022/10/09 08:27:53;;;;;;;4.85;2.58;;;12.60;68.20;;;;;;5101495;28;20271;-83
2022/10/09 08:30:19;;;;;;;4.35;2.40;;;12.80;67.90;;;;;;5113724;28;20052;-81
2022/10/09 08:32:45;;;;;;;2.33;1.52;;;13.10;66.50;;;;;;5104125;28;20073;-78
2022/10/09 08:35:11;;;;;;;2.55;1.60;;;13.30;66.60;;;;;;5109879;28;20024;-82
2022/10/09 08:37:37;;;;;;;5.78;1.65;;;13.30;66.20;;;;;;5111911;27;20052;-83
2022/10/09 08:40:05;;;;;;;8.38;1.90;;;13.40;66.50;;;;;;5108055;28;20088;-82
2022/10/09 08:42:42;;;;;;;6.55;1.80;;;13.30;66.60;;;;;;5112468;28;20054;-81
2022/10/09 08:45:16;;;;;;;3.42;1.60;;;13.30;66.80;;;;;;5111316;28;20027;-81
2022/10/09 08:47:48;;;;;;;3.08;1.85;;;13.30;66.90;;;;;;5087365;28;20036;-87
2022/10/09 08:50:19;;;;;;;4.80;1.70;;;13.40;67.20;;;;;;5093640;28;20410;-85
2022/10/09 08:52:58;;;;;;;;;;;13.50;67.40;;;;;;5087958;28;20395;-89
2022/10/09 08:55:30;;;;;;;3.80;1.75;;;13.40;66.90;;;;;;5078324;28;19904;-86
2022/10/09 08:58:03;;;;;;;3.90;1.77;;;13.50;66.90;;;;;;5079398;28;20039;-87
2022/10/09 09:00:43;;;;;;;3.60;1.55;;;13.60;67.10;;;;;;5095812;28;20070;-84
2022/10/09 09:03:14;;;;;;;5.78;1.52;;;13.70;67.40;;;;;;5096329;28;20054;-83
2022/10/09 09:05:55;;;;;;;3.35;2.05;;;13.70;67.20;;;;;;5090784;28;20067;-80
2022/10/09 09:08:41;;;;;;;2.90;1.42;;;13.80;67.50;;;;;;5105634;28;20402;-82
2022/10/09 09:11:22;;;;;;;5.65;1.33;;;13.80;67.00;;;;;;5107464;28;20391;-80
2022/10/09 09:14:00;;;;;;;4.53;1.75;;;13.90;67.00;;;;;;5113723;28;20038;-82
2022/10/09 09:16:50;;;;;;;4.35;1.60;;;14.00;67.00;;;;;;5095953;28;20081;-80
2022/10/09 09:19:37;;;;;;;3.67;1.75;;;14.10;66.80;;;;;;5093692;28;20755;-83
2022/10/09 09:22:08;;;;;;;4.75;1.88;;;14.20;66.80;;;;;;5081677;27;20079;-78
2022/10/09 09:24:43;;;;;;;3.28;1.90;;;14.20;66.20;;;;;;5106274;28;20070;-77
2022/10/09 09:27:18;;;;;;;4.18;1.33;;;14.30;66.00;;;;;;5092714;28;20035;-77
2022/10/09 09:30:09;;;;;;;7.07;1.50;;;14.40;66.60;;;;;;5101597;28;20027;-77
2022/10/09 09:32:35;;;;;;;5.22;2.35;;;14.50;66.00;;;;;;5081767;28;20035;-78
2022/10/09 09:35:19;;;;;;;3.90;1.77;;;14.50;65.80;;;;;;5110659;28;20037;-78
2022/10/09 09:37:45;;;;;;;5.80;2.03;;;14.60;66.10;;;;;;5068898;28;20775;-78
2022/10/09 09:40:14;;;;;;;3.28;1.58;;;14.60;66.00;;;;;;5108161;28;20287;-77
2022/10/09 09:42:41;;;;;;;3.45;1.85;;;14.70;66.40;;;;;;5087751;28;20036;-78
2022/10/09 09:45:16;;;;;;;7.32;2.08;;;14.80;66.50;;;;;;5095233;28;20023;-77
2022/10/09 09:47:48;;;;;;;4.00;2.13;;;14.90;66.50;;;;;;5107946;28;20032;-78
2022/10/09 09:50:14;;;;;;;4.53;1.55;;;15.00;65.90;;;;;;5104287;28;20024;-78
2022/10/09 09:52:44;;;;;;;4.68;1.40;;;15.00;66.30;;;;;;5102841;28;20031;-77
2022/10/09 09:55:29;;;;;;;4.40;1.58;;;15.10;65.70;;;;;;5106652;28;20099;-78
2022/10/09 09:58:02;;;;;;;4.32;1.58;;;15.20;66.00;;;;;;5105991;27;20031;-77
2022/10/09 10:00:28;;;;;;;5.18;1.40;;;15.40;65.80;;;;;;5064163;28;20027;-78
2022/10/09 10:03:12;;;;;;;2.88;1.60;;;15.70;65.10;;;;;;5068741;28;20031;-77
2022/10/09 10:05:40;;;;;;;3.20;1.58;;;15.80;63.80;;;;;;5105602;28;20043;-78
2022/10/09 10:08:33;;;;;;;6.68;1.55;;;15.80;63.80;;;;;;5090907;28;20034;-78
2022/10/09 10:11:01;;;;;;;5.10;1.50;;;15.80;64.60;;;;;;5103202;28;20042;-77
2022/10/09 10:13:34;;;;;;;4.85;1.35;;;15.80;63.90;;;;;;5112604;28;20110;-76
2022/10/09 10:16:00;;;;;;;5.03;2.53;;;15.90;65.00;;;;;;5097159;28;20096;-77
2022/10/09 10:18:31;;;;;;;4.80;1.70;;;15.90;64.60;;;;;;5107968;28;20036;-76
2022/10/09 10:21:18;;;;;;;7.20;1.48;;;15.90;64.90;;;;;;5077657;28;20039;-77
2022/10/09 10:24:02;;;;;;;3.75;1.48;;;16.00;65.10;;;;;;5099533;28;20031;-78
2022/10/09 10:26:39;;;;;;;3.40;1.83;;;16.00;64.50;;;;;;5116235;28;20030;-76
2022/10/09 10:29:17;;;;;;;2.35;1.33;;;16.10;64.50;;;;;;5105820;28;20032;-77
2022/10/09 10:32:04;;;;;;;2.38;1.27;;;16.20;64.50;;;;;;5094745;28;20031;-76
2022/10/09 10:34:47;;;;;;;2.40;1.33;;;16.30;63.60;;;;;;5116251;28;20073;-76
2022/10/09 10:37:13;;;;;;;4.07;1.42;;;16.30;63.60;;;;;;5108372;28;20032;-82
2022/10/09 10:39:57;;;;;;;1.73;1.10;;;16.40;64.20;;;;;;5110432;28;20034;-77
2022/10/09 10:42:35;;;;;;;2.80;1.40;;;16.50;63.80;;;;;;5095909;28;20524;-78
2022/10/09 10:45:14;;;;;;;2.97;0.95;;;16.50;63.80;;;;;;5098735;28;20024;-78
2022/10/09 10:47:48;;;;;;;4.57;1.38;;;16.50;63.40;;;;;;5087154;28;20032;-78
2022/10/09 10:50:15;;;;;;;3.25;1.35;;;16.60;63.00;;;;;;5110132;28;20035;-78
2022/10/09 10:52:44;;;;;;;7.03;1.73;;;16.60;62.90;;;;;;5115718;28;20032;-77
2022/10/09 10:55:15;;;;;;;3.33;1.48;;;16.70;63.20;;;;;;5092724;28;20024;-79
2022/10/09 10:57:57;;;;;;;5.60;2.53;;;16.70;62.60;;;;;;5077473;28;20054;-76
2022/10/09 11:00:22;;;;;;;3.33;1.10;;;16.70;62.30;;;;;;5095126;28;20100;-76
2022/10/09 11:03:10;;;;;;;2.75;1.58;;;16.80;61.80;;;;;;5087148;28;20036;-76
2022/10/09 11:05:45;;;;;;;2.60;1.30;;;16.80;62.30;;;;;;5076985;28;20063;-77
2022/10/09 11:08:10;;;;;;;2.58;1.20;;;16.90;61.90;;;;;;5094677;28;20376;-77
2022/10/09 11:10:42;;;;;;;3.30;1.25;;;17.00;62.30;;;;;;5083251;28;20020;-76
2022/10/09 11:13:21;;;;;;;3.50;1.50;;;17.00;61.60;;;;;;5094984;28;20028;-77
2022/10/09 11:16:08;;;;;;;2.47;1.33;;;17.10;61.70;;;;;;5095153;28;20024;-80
2022/10/09 11:18:49;;;;;;;5.15;1.33;;;17.20;61.50;;;;;;5095937;28;20036;-79
2022/10/09 11:21:40;;;;;;;3.47;1.23;;;17.20;62.40;;;;;;5114723;28;20075;-80
2022/10/09 11:24:31;;;;;;;2.28;0.95;;;17.30;61.30;;;;;;5091566;28;20111;-80
2022/10/09 11:27:03;;;;;;;2.03;1.15;;;17.30;60.60;;;;;;5113550;28;20028;-75
2022/10/09 11:29:37;;;;;;;2.45;1.45;;;17.30;61.10;;;;;;5116034;28;20020;-77
2022/10/09 11:32:18;;;;;;;3.25;0.93;;;17.40;61.20;;;;;;5107828;28;20025;-76
2022/10/09 11:34:49;;;;;;;3.33;1.05;;;17.50;60.50;;;;;;5104851;28;20024;-77
2022/10/09 11:37:21;;;;;;;5.10;1.10;;;17.50;60.80;;;;;;5107949;28;20044;-76
2022/10/09 11:39:47;;;;;;;3.15;1.08;;;17.60;60.50;;;;;;5090460;28;20495;-76
2022/10/09 11:42:18;;;;;;;3.08;1.13;;;17.60;60.60;;;;;;5105832;28;20028;-76
2022/10/09 11:45:21;;;;;;;3.88;1.55;;;17.70;59.60;;;;;;5093098;28;20055;-76
2022/10/09 11:48:06;;;;;;;5.25;1.27;;;17.70;60.30;;;;;;5075563;28;20047;-77
2022/10/09 11:50:39;;;;;;;2.13;0.93;;;17.80;60.00;;;;;;5086469;28;20402;-77
2022/10/09 11:53:17;;;;;;;5.03;1.48;;;17.80;59.30;;;;;;5115632;28;20015;-77
2022/10/09 11:55:44;;;;;;;2.70;1.10;;;17.90;59.90;;;;;;5115321;28;20028;-77
2022/10/09 11:58:21;;;;;;;2.55;1.05;;;17.90;59.90;;;;;;5112536;28;20499;-77
2022/10/09 12:00:52;;;;;;;3.92;1.27;;;18.00;59.20;;;;;;5114116;28;20023;-77
2022/10/09 12:03:34;;;;;;;3.78;1.85;;;18.00;59.10;;;;;;5114756;28;20158;-77
2022/10/09 12:06:15;;;;;;;2.60;1.17;;;18.00;58.20;;;;;;5115242;28;20494;-77
2022/10/09 12:08:42;;;;;;;3.67;1.10;;;18.20;58.20;;;;;;5097633;28;20031;-77
2022/10/09 12:11:16;;;;;;;2.60;1.38;;;18.10;58.40;;;;;;5111878;28;20080;-76
2022/10/09 12:13:46;;;;;;;2.60;1.52;;;18.20;58.10;;;;;;5110711;27;20020;-77
2022/10/09 12:16:31;;;;;;;2.65;0.93;;;18.30;58.60;;;;;;5092266;28;20390;-76
2022/10/09 12:18:59;;;;;;;3.03;1.30;;;18.30;58.00;;;;;;5094492;28;20031;-76
2022/10/09 12:21:39;;;;;;;2.92;1.20;;;18.40;58.40;;;;;;5113663;28;20034;-76
2022/10/09 12:24:12;;;;;;;5.95;1.67;;;18.40;57.90;;;;;;5095298;28;20035;-77
2022/10/09 12:26:40;;;;;;;2.72;1.23;;;18.50;57.10;;;;;;5113717;27;20074;-76
2022/10/09 12:29:12;;;;;;;3.15;1.20;;;18.50;56.80;;;;;;5112393;28;20498;-76
2022/10/09 12:31:40;;;;;;;5.38;1.50;;;18.60;57.10;;;;;;5114213;28;20040;-76
2022/10/09 12:34:24;;;;;;;2.38;1.25;;;18.60;57.00;;;;;;5092341;28;20048;-76
2022/10/09 12:36:50;;;;;;;1.60;0.80;;;18.60;57.60;;;;;;5097444;28;20491;-76
2022/10/09 12:39:23;;;;;;;6.60;1.52;;;18.70;56.40;;;;;;5111607;28;20579;-77
2022/10/09 12:41:53;;;;;;;3.30;1.10;;;18.80;56.20;;;;;;5107376;28;20049;-76
2022/10/09 12:44:25;;;;;;;;;;;18.80;56.20;;;;;;5093974;28;20432;-76
2022/10/09 12:46:51;;;;;;;2.47;0.90;;;18.80;55.30;;;;;;5101413;27;19908;-76
2022/10/09 12:49:20;;;;;;;3.47;1.20;;;18.90;55.10;;;;;;5078290;28;20039;-76
2022/10/09 12:51:54;;;;;;;3.30;1.10;;;18.90;55.70;;;;;;5096267;27;20077;-76
2022/10/09 12:54:20;;;;;;;2.75;0.98;;;19.00;55.70;;;;;;5102890;28;20045;-77
2022/10/09 12:56:47;;;;;;;2.97;1.08;;;19.00;55.80;;;;;;5107130;28;20016;-75
2022/10/09 12:59:14;;;;;;;5.55;1.10;;;19.10;54.90;;;;;;5111068;28;20055;-77
2022/10/09 13:01:41;;;;;;;3.47;1.05;;;19.20;55.00;;;;;;5108206;28;20031;-76
2022/10/09 13:04:21;;;;;;;2.92;1.20;;;19.10;54.80;;;;;;5094833;28;20100;-80